Delta Virtual Airport Information Service

Abbotsford International Airport

ICAO: CYXX Country: Canada
Latitude: 49.0253 Longitude: -122.36
Latest Arrival : WJA191 (CYYC-CYXX) Latest Departure : UPS9588 (CYXX-KSDF)


WX CaptureLIVE
Data provided by noaa.gov | Fetched at 08:12:06

METAR : CYXX 061300Z 19006KT 15SM SCT036 BKN085 OVC180 07/01 A2989 RMK CU3AC4AS1 SLP123

TAF : CYXX 061138Z 0612/0712 VRB03KT P6SM BKN030 OVC060 TEMPO 0612/0618 4SM -SHRA BR FEW008 BKN020 BECMG 0612/0614 19012KT FM061800 19012KT P6SM SCT030 BKN080 TEMPO 0618/0705 P6SM -SHRA BKN030 FM070500 18008KT P6SM SCT040 BKN140 FM071000 18005KT P6SM -RA BKN040 RMK NXT FCST BY 061800Z


Runway Data for CYXX
Data provided by openaviationdata.com

Runway ID Mag Var Hdg Length Elevation Surface ILS Freq ILS Id ILS Slope
1 19 5260 ft 190 ft Asphalt -- -- --
7 19 66° 7988 ft 190 ft Asphalt 109.7 IXX 3
19 19 186° 5260 ft 190 ft Asphalt -- -- --
25 19 246° 7988 ft 190 ft Asphalt -- -- --

Abbotsford International Airport, Canada
Use only for reference purposes



Not for navigational purposes.